Time;durP1;ratioP1;P1;durP2;ratioP2;P2;SDS_P1;SDS_P2;PMS_P1;PMS_P2;Temp;Humidity;BMP_temperature;BMP_pressure;BME280_temperature;BME280_humidity;BME280_pressure;Samples;Min_cycle;Max_cycle;Signal;HPM_P1;HPM_P2
2023/04/16 00:01:39;;;;;;;34.55;19.27;;;4.10;99.90;;;;;;4996233;28;20483;-85
2023/04/16 00:04:04;;;;;;;36.53;20.10;;;4.20;99.90;;;;;;4978808;28;20412;-86
2023/04/16 00:06:30;;;;;;;33.78;17.85;;;4.20;99.90;;;;;;4995656;28;20394;-84
2023/04/16 00:08:56;;;;;;;41.33;21.95;;;4.30;99.90;;;;;;4995802;28;20026;-85
2023/04/16 00:11:22;;;;;;;37.35;20.40;;;4.40;99.90;;;;;;4995376;28;20377;-86
2023/04/16 00:13:48;;;;;;;36.47;20.25;;;4.50;99.90;;;;;;4978828;28;20022;-86
2023/04/16 00:16:14;;;;;;;38.42;21.00;;;4.50;99.90;;;;;;4995639;28;20034;-85
2023/04/16 00:18:41;;;;;;;37.08;21.98;;;4.60;99.90;;;;;;4995886;28;20033;-83
2023/04/16 00:21:07;;;;;;;35.75;20.25;;;4.60;99.90;;;;;;4995734;28;20023;-85
2023/04/16 00:23:32;;;;;;;39.50;20.88;;;4.70;99.90;;;;;;4995578;28;20105;-85
2023/04/16 00:26:01;;;;;;;42.40;20.88;;;4.80;99.90;;;;;;4995779;28;20529;-85
2023/04/16 00:28:27;;;;;;;34.38;21.95;;;4.80;99.90;;;;;;4995685;28;20034;-84
2023/04/16 00:30:53;;;;;;;38.17;21.75;;;4.80;99.90;;;;;;4995456;28;20500;-84
2023/04/16 00:33:19;;;;;;;39.75;20.02;;;4.80;99.90;;;;;;4995850;28;20034;-85
2023/04/16 00:35:46;;;;;;;42.25;23.20;;;4.90;99.90;;;;;;4977917;28;20030;-85
2023/04/16 00:38:12;;;;;;;39.45;23.02;;;4.90;99.90;;;;;;4977984;28;20022;-84
2023/04/16 00:40:37;;;;;;;43.40;23.15;;;5.00;99.90;;;;;;4995391;28;20042;-86
2023/04/16 00:43:04;;;;;;;41.30;23.73;;;4.90;99.90;;;;;;4977985;28;20452;-84
2023/04/16 00:45:30;;;;;;;48.22;25.20;;;5.00;99.90;;;;;;4978166;28;20050;-84
2023/04/16 00:47:58;;;;;;;43.53;23.35;;;4.90;99.90;;;;;;4995614;28;20026;-86
2023/04/16 00:50:23;;;;;;;64.25;27.25;;;4.90;99.90;;;;;;4995501;28;20047;-85
2023/04/16 00:52:50;;;;;;;65.07;28.13;;;4.90;99.90;;;;;;4994807;28;20046;-85
2023/04/16 00:55:17;;;;;;;92.00;30.95;;;4.90;99.90;;;;;;4995152;28;20034;-85
2023/04/16 00:57:44;;;;;;;117.60;39.60;;;5.00;99.90;;;;;;4995226;28;20054;-84
2023/04/16 01:00:10;;;;;;;84.57;36.53;;;5.00;99.90;;;;;;4995366;28;20030;-84
2023/04/16 01:02:36;;;;;;;102.13;37.28;;;5.00;99.90;;;;;;4995113;28;20022;-84
2023/04/16 01:05:03;;;;;;;99.63;40.33;;;5.10;99.90;;;;;;4995212;28;20029;-85
2023/04/16 01:07:29;;;;;;;95.55;34.38;;;5.10;99.90;;;;;;4994872;28;20029;-84
2023/04/16 01:09:55;;;;;;;246.18;52.75;;;5.20;99.90;;;;;;4977811;28;20030;-86
2023/04/16 01:12:20;;;;;;;114.38;41.42;;;5.20;99.90;;;;;;4994603;28;20029;-85
2023/04/16 01:14:47;;;;;;;190.35;45.50;;;5.20;99.90;;;;;;4994989;28;20027;-84
2023/04/16 01:17:12;;;;;;;198.68;49.42;;;5.20;99.90;;;;;;4994606;28;20523;-86
2023/04/16 01:19:38;;;;;;;211.88;53.63;;;5.20;99.90;;;;;;4994673;28;20022;-84
2023/04/16 01:22:04;;;;;;;239.30;50.58;;;5.30;99.90;;;;;;4977755;28;20072;-84
2023/04/16 01:24:30;;;;;;;343.70;57.50;;;5.20;99.90;;;;;;4994854;28;20062;-84
2023/04/16 01:26:59;;;;;;;303.67;48.95;;;5.30;99.90;;;;;;4994905;28;20026;-85
2023/04/16 01:29:26;;;;;;;216.98;50.40;;;5.30;99.90;;;;;;4994679;28;20030;-86
2023/04/16 01:31:51;;;;;;;373.98;60.17;;;5.30;99.90;;;;;;4977112;28;20019;-84
2023/04/16 01:34:17;;;;;;;347.98;54.97;;;5.30;99.90;;;;;;4977254;28;20021;-84
2023/04/16 01:36:43;;;;;;;195.57;41.63;;;5.30;99.90;;;;;;4976827;28;20049;-83
2023/04/16 01:39:14;;;;;;;165.15;38.58;;;5.30;99.90;;;;;;4994508;28;20113;-84
2023/04/16 01:41:40;;;;;;;91.57;33.42;;;5.30;99.90;;;;;;4993988;28;20019;-85
2023/04/16 01:44:06;;;;;;;155.05;38.45;;;5.30;99.90;;;;;;4976978;28;20026;-85
2023/04/16 01:46:35;;;;;;;125.50;36.63;;;5.30;99.90;;;;;;4976682;28;20065;-84
2023/04/16 01:49:01;;;;;;;121.20;35.45;;;5.30;99.90;;;;;;4993937;28;20031;-85
2023/04/16 01:51:27;;;;;;;166.00;38.80;;;5.20;99.90;;;;;;4994060;28;20378;-84
2023/04/16 01:53:53;;;;;;;84.68;33.65;;;5.30;99.90;;;;;;4976674;28;20092;-85
2023/04/16 01:56:19;;;;;;;176.88;41.53;;;5.30;99.90;;;;;;4995006;28;20108;-84
2023/04/16 01:58:46;;;;;;;183.05;41.58;;;5.30;99.90;;;;;;4994227;28;20085;-85
2023/04/16 02:01:12;;;;;;;183.18;37.15;;;5.30;99.90;;;;;;4994491;28;20120;-86
2023/04/16 02:03:38;;;;;;;169.02;38.95;;;5.30;99.90;;;;;;4994195;28;20029;-84
2023/04/16 02:06:04;;;;;;;106.88;33.55;;;5.30;99.90;;;;;;4992884;28;20535;-85
2023/04/16 02:08:30;;;;;;;72.20;28.88;;;5.30;99.90;;;;;;4993994;28;20026;-85
2023/04/16 02:10:56;;;;;;;83.45;31.83;;;5.40;99.90;;;;;;4976407;28;20440;-85
2023/04/16 02:13:24;;;;;;;201.23;37.63;;;5.40;99.90;;;;;;4994005;28;20053;-85
2023/04/16 02:15:51;;;;;;;121.28;35.50;;;5.40;99.90;;;;;;4994002;28;20050;-86
2023/04/16 02:18:16;;;;;;;244.95;41.97;;;5.40;99.90;;;;;;4993872;28;20542;-85
2023/04/16 02:20:43;;;;;;;179.27;38.83;;;5.30;99.90;;;;;;4993622;28;20113;-84
2023/04/16 02:23:10;;;;;;;387.27;52.60;;;5.30;99.90;;;;;;4994038;28;20104;-85
2023/04/16 02:25:40;;;;;;;185.52;39.05;;;5.20;99.90;;;;;;4993649;28;20136;-85
2023/04/16 02:28:13;;;;;;;293.70;47.03;;;5.20;99.90;;;;;;4975892;28;20381;-84
2023/04/16 02:30:40;;;;;;;193.70;35.22;;;5.20;99.90;;;;;;4993504;28;20057;-84
2023/04/16 02:33:07;;;;;;;179.23;33.15;;;5.20;99.90;;;;;;4993475;28;20038;-85
2023/04/16 02:35:37;;;;;;;128.45;33.30;;;5.20;99.90;;;;;;4993010;28;20030;-84
2023/04/16 02:38:03;;;;;;;225.20;42.42;;;5.20;99.90;;;;;;4976278;28;20027;-84
2023/04/16 02:40:30;;;;;;;108.28;33.03;;;5.20;99.90;;;;;;4993275;28;20031;-84
2023/04/16 02:42:57;;;;;;;235.35;39.28;;;5.20;99.90;;;;;;4993636;28;20480;-83
2023/04/16 02:45:23;;;;;;;168.32;35.65;;;5.10;99.90;;;;;;4976355;28;20034;-85
2023/04/16 02:47:50;;;;;;;116.72;30.70;;;5.10;99.90;;;;;;4993626;28;20026;-85
2023/04/16 02:50:17;;;;;;;112.65;27.30;;;5.10;99.90;;;;;;4993805;28;20038;-85
2023/04/16 02:52:43;;;;;;;175.85;34.63;;;5.10;99.90;;;;;;4975493;28;20043;-85
2023/04/16 02:55:09;;;;;;;177.45;39.28;;;5.10;99.90;;;;;;4993319;28;20081;-85
2023/04/16 02:57:35;;;;;;;130.02;30.88;;;5.00;99.90;;;;;;4975559;28;20054;-84
2023/04/16 03:00:03;;;;;;;72.88;31.92;;;5.10;99.90;;;;;;4993314;28;20042;-85
2023/04/16 03:02:28;;;;;;;61.80;25.98;;;5.10;99.90;;;;;;4993412;28;20384;-85
2023/04/16 03:04:54;;;;;;;72.43;28.13;;;5.10;99.90;;;;;;4993061;28;20057;-84
2023/04/16 03:07:20;;;;;;;121.38;31.10;;;5.20;99.90;;;;;;4993374;28;20021;-85
2023/04/16 03:09:46;;;;;;;227.45;41.92;;;5.10;99.90;;;;;;4993264;28;20030;-85
2023/04/16 03:12:11;;;;;;;98.88;31.25;;;5.20;99.90;;;;;;4976273;28;20460;-84
2023/04/16 03:14:37;;;;;;;179.32;34.13;;;5.10;99.90;;;;;;4993031;28;20105;-85
2023/04/16 03:17:03;;;;;;;138.25;35.70;;;5.10;99.90;;;;;;4993645;28;20039;-84
2023/04/16 03:19:29;;;;;;;156.32;32.65;;;5.10;99.90;;;;;;4996774;28;20030;-85
2023/04/16 03:21:55;;;;;;;75.93;29.65;;;5.10;99.90;;;;;;4979564;28;20054;-85
2023/04/16 03:24:20;;;;;;;214.95;39.58;;;5.10;99.90;;;;;;4979255;28;20018;-84
2023/04/16 03:26:46;;;;;;;140.27;33.35;;;5.00;99.90;;;;;;4996749;28;20045;-85
2023/04/16 03:29:12;;;;;;;94.07;30.73;;;4.90;99.90;;;;;;4996712;28;20176;-84
2023/04/16 03:31:37;;;;;;;363.88;52.00;;;4.90;99.90;;;;;;4997048;28;20080;-86
2023/04/16 03:34:03;;;;;;;233.75;36.40;;;4.90;99.90;;;;;;4996955;28;20032;-84
2023/04/16 03:36:29;;;;;;;104.50;29.50;;;4.90;99.90;;;;;;4996777;28;20022;-84
2023/04/16 03:38:55;;;;;;;148.30;33.72;;;4.90;99.90;;;;;;4979229;28;20018;-86
2023/04/16 03:41:21;;;;;;;183.70;37.88;;;4.90;99.90;;;;;;4978139;28;20176;-84
2023/04/16 03:43:46;;;;;;;143.15;30.23;;;4.90;99.90;;;;;;4996926;28;20042;-84
2023/04/16 03:46:12;;;;;;;136.73;29.42;;;4.80;99.90;;;;;;4996453;28;20049;-84
2023/04/16 03:48:38;;;;;;;155.88;30.80;;;4.80;99.90;;;;;;4996475;28;20022;-84
2023/04/16 03:51:03;;;;;;;154.15;32.65;;;4.70;99.90;;;;;;4996220;28;20038;-84
2023/04/16 03:53:29;;;;;;;132.52;28.85;;;4.70;99.90;;;;;;4995763;28;20165;-83
2023/04/16 03:55:55;;;;;;;181.75;31.77;;;4.70;99.90;;;;;;4979047;28;20415;-84
2023/04/16 03:58:20;;;;;;;144.35;30.27;;;4.70;99.90;;;;;;4996422;28;20109;-85
2023/04/16 04:00:46;;;;;;;64.32;27.95;;;4.70;99.90;;;;;;4978523;28;20019;-85
2023/04/16 04:03:12;;;;;;;234.88;39.15;;;4.70;99.90;;;;;;4979299;28;20034;-86
2023/04/16 04:05:41;;;;;;;118.78;29.27;;;4.80;99.90;;;;;;4996170;28;20389;-84
2023/04/16 04:08:07;;;;;;;134.25;32.15;;;4.80;99.90;;;;;;4996125;28;20109;-85
2023/04/16 04:10:36;;;;;;;124.13;30.85;;;4.80;99.90;;;;;;4995968;28;20041;-86
2023/04/16 04:13:03;;;;;;;278.42;45.80;;;4.80;99.90;;;;;;4996075;28;20037;-85
2023/04/16 04:15:29;;;;;;;117.90;28.48;;;4.90;99.90;;;;;;4978921;28;20027;-85
2023/04/16 04:17:55;;;;;;;117.32;27.98;;;4.90;99.90;;;;;;4995960;28;20362;-84
2023/04/16 04:20:21;;;;;;;79.25;26.30;;;4.90;99.90;;;;;;4995714;28;20106;-85
2023/04/16 04:22:48;;;;;;;155.35;30.33;;;4.90;99.90;;;;;;4978483;28;20019;-85
2023/04/16 04:25:15;;;;;;;133.98;28.63;;;4.90;99.90;;;;;;4978600;28;20491;-85
2023/04/16 04:27:40;;;;;;;246.15;41.55;;;4.90;99.90;;;;;;4978561;28;20026;-84
2023/04/16 04:30:06;;;;;;;126.75;27.58;;;5.00;99.90;;;;;;4994468;28;20045;-85
2023/04/16 04:32:32;;;;;;;116.15;26.63;;;5.00;99.90;;;;;;4995381;28;20100;-84
2023/04/16 04:35:01;;;;;;;112.13;25.48;;;5.00;99.90;;;;;;4995770;28;20031;-84
2023/04/16 04:37:27;;;;;;;110.03;28.10;;;5.00;99.90;;;;;;4995342;28;20037;-85
2023/04/16 04:39:52;;;;;;;106.15;29.02;;;5.00;99.90;;;;;;4995523;28;20030;-84
2023/04/16 04:42:19;;;;;;;67.00;25.55;;;5.00;99.90;;;;;;4995687;28;20031;-85
2023/04/16 04:44:45;;;;;;;55.13;24.52;;;5.10;99.90;;;;;;4995131;28;20018;-84
2023/04/16 04:47:11;;;;;;;126.03;30.45;;;5.20;99.90;;;;;;4977901;28;20030;-85
2023/04/16 04:49:36;;;;;;;177.65;32.75;;;5.20;99.90;;;;;;4995016;28;20547;-84
2023/04/16 04:52:02;;;;;;;154.55;32.53;;;5.20;99.90;;;;;;4995263;28;20073;-86
2023/04/16 04:54:29;;;;;;;70.97;25.92;;;5.10;99.90;;;;;;4995283;28;20054;-84
2023/04/16 04:56:55;;;;;;;83.25;26.08;;;5.10;99.90;;;;;;4995055;28;20357;-84
2023/04/16 04:59:21;;;;;;;146.93;29.52;;;5.10;99.90;;;;;;4977785;28;20033;-85
2023/04/16 05:01:47;;;;;;;104.82;26.35;;;5.10;99.90;;;;;;4995533;28;20026;-84
2023/04/16 05:04:13;;;;;;;163.35;31.17;;;5.10;99.90;;;;;;4995350;28;20109;-85
2023/04/16 05:06:39;;;;;;;84.00;23.48;;;5.10;99.90;;;;;;4995301;28;20495;-85
2023/04/16 05:09:04;;;;;;;143.25;28.83;;;5.10;99.90;;;;;;4976336;28;20066;-84
2023/04/16 05:11:32;;;;;;;132.45;30.63;;;5.00;99.90;;;;;;4975113;28;20493;-85
2023/04/16 05:13:58;;;;;;;199.55;35.83;;;5.10;99.90;;;;;;4975448;28;20054;-86
2023/04/16 05:16:24;;;;;;;171.00;33.90;;;5.00;99.90;;;;;;4975268;28;20042;-86
2023/04/16 05:18:49;;;;;;;369.35;50.42;;;5.10;99.90;;;;;;4975881;28;20023;-87
2023/04/16 05:21:15;;;;;;;229.30;39.63;;;5.10;99.90;;;;;;4966506;28;20025;-84
2023/04/16 05:23:41;;;;;;;175.05;32.97;;;5.10;99.90;;;;;;4984923;28;20053;-84
2023/04/16 05:26:06;;;;;;;268.55;41.05;;;5.10;99.90;;;;;;4975021;28;20041;-84
2023/04/16 05:28:32;;;;;;;213.05;37.58;;;5.20;99.90;;;;;;4975086;28;20500;-86
2023/04/16 05:30:58;;;;;;;104.55;31.98;;;5.10;99.90;;;;;;4975067;28;20111;-85
2023/04/16 05:33:24;;;;;;;179.38;35.20;;;5.10;99.90;;;;;;4974902;28;20098;-84
2023/04/16 05:35:49;;;;;;;245.93;39.67;;;5.20;99.90;;;;;;4975302;28;20031;-86
2023/04/16 05:38:15;;;;;;;171.18;35.15;;;5.10;99.90;;;;;;4975281;28;20050;-86
2023/04/16 05:40:41;;;;;;;203.93;35.65;;;5.10;99.90;;;;;;4957617;28;20029;-83
2023/04/16 05:43:07;;;;;;;105.60;27.25;;;5.10;99.90;;;;;;4983386;28;20445;-85
2023/04/16 05:45:38;;;;;;;137.65;30.98;;;5.30;99.90;;;;;;4984285;28;20022;-84
2023/04/16 05:48:04;;;;;;;169.25;32.95;;;5.40;99.90;;;;;;4984953;28;20427;-85
2023/04/16 05:50:30;;;;;;;147.88;32.85;;;5.50;99.90;;;;;;4983554;28;20034;-86
2023/04/16 05:52:56;;;;;;;145.95;31.23;;;5.50;99.90;;;;;;4983666;28;20492;-84
2023/04/16 05:55:21;;;;;;;154.38;32.85;;;5.50;99.90;;;;;;4976294;28;20054;-84
2023/04/16 05:57:47;;;;;;;151.80;32.50;;;5.50;99.90;;;;;;4994166;28;20460;-85
2023/04/16 06:00:13;;;;;;;157.18;31.25;;;5.60;99.90;;;;;;4989356;28;20153;-85
2023/04/16 06:02:38;;;;;;;70.07;28.00;;;5.50;99.90;;;;;;4974638;28;20027;-85
2023/04/16 06:05:04;;;;;;;193.48;42.78;;;5.70;99.90;;;;;;4979968;28;20030;-85
2023/04/16 06:07:30;;;;;;;113.15;32.97;;;5.80;99.90;;;;;;4982646;28;20022;-87
2023/04/16 06:09:56;;;;;;;108.00;34.30;;;5.90;99.90;;;;;;4978362;28;20058;-85
2023/04/16 06:12:21;;;;;;;80.25;30.02;;;6.00;99.90;;;;;;4979352;28;20035;-84
2023/04/16 06:14:47;;;;;;;117.45;34.80;;;6.10;99.90;;;;;;4969889;28;20507;-85
2023/04/16 06:17:13;;;;;;;114.57;31.92;;;6.20;99.90;;;;;;4985066;28;20101;-86
2023/04/16 06:19:39;;;;;;;103.60;34.10;;;6.30;99.90;;;;;;4982595;28;20026;-84
2023/04/16 06:22:06;;;;;;;116.50;34.75;;;6.30;99.90;;;;;;4983389;28;20366;-83
2023/04/16 06:24:32;;;;;;;109.53;35.25;;;6.30;99.90;;;;;;4984583;28;20022;-85
2023/04/16 06:26:57;;;;;;;106.35;33.67;;;6.30;99.90;;;;;;4976744;28;20019;-84
2023/04/16 06:29:23;;;;;;;106.03;36.47;;;6.30;99.90;;;;;;4974197;28;20026;-84
2023/04/16 06:31:49;;;;;;;73.65;30.23;;;6.30;99.90;;;;;;4959238;28;20031;-84
2023/04/16 06:34:15;;;;;;;119.82;37.78;;;6.30;99.90;;;;;;4979237;28;20031;-85
2023/04/16 06:36:40;;;;;;;112.97;36.35;;;6.30;99.90;;;;;;4973736;28;20085;-86
2023/04/16 06:39:09;;;;;;;86.65;35.72;;;6.30;99.90;;;;;;4974143;28;20504;-86
2023/04/16 06:41:35;;;;;;;106.57;38.35;;;6.40;99.90;;;;;;4974132;28;20026;-85
2023/04/16 06:44:01;;;;;;;107.10;39.47;;;6.40;99.90;;;;;;4957273;28;20042;-85
2023/04/16 06:46:26;;;;;;;114.53;42.70;;;6.50;99.90;;;;;;4956791;28;20138;-84
2023/04/16 06:48:52;;;;;;;103.13;40.95;;;6.60;99.90;;;;;;4956610;28;20097;-84
2023/04/16 06:51:18;;;;;;;101.15;39.38;;;6.60;99.90;;;;;;4974090;28;20035;-85
2023/04/16 06:53:44;;;;;;;95.55;35.92;;;6.60;99.90;;;;;;4959767;28;20070;-84
2023/04/16 06:56:09;;;;;;;80.55;35.15;;;6.60;99.90;;;;;;4961186;28;20066;-85
2023/04/16 06:58:35;;;;;;;84.72;35.70;;;6.70;99.90;;;;;;4961047;28;20026;-84
2023/04/16 07:01:01;;;;;;;90.15;35.13;;;6.70;99.90;;;;;;4977904;28;20027;-85
2023/04/16 07:03:27;;;;;;;90.45;37.15;;;6.70;99.90;;;;;;4978034;28;20085;-84
2023/04/16 07:05:52;;;;;;;100.78;37.55;;;6.80;99.90;;;;;;4977835;28;20102;-84
2023/04/16 07:08:18;;;;;;;100.53;37.95;;;6.90;99.90;;;;;;4977732;28;20027;-85
2023/04/16 07:10:44;;;;;;;85.35;35.58;;;7.00;99.90;;;;;;4960220;28;20034;-85
2023/04/16 07:13:09;;;;;;;86.07;37.45;;;7.00;99.90;;;;;;4977588;28;20023;-85
2023/04/16 07:15:35;;;;;;;85.53;36.95;;;7.10;99.90;;;;;;4960328;28;20030;-85
2023/04/16 07:18:01;;;;;;;85.03;33.25;;;7.20;99.90;;;;;;4978852;28;20381;-84
2023/04/16 07:20:26;;;;;;;74.93;34.50;;;7.30;99.90;;;;;;4969415;28;20027;-86
2023/04/16 07:22:52;;;;;;;79.57;32.30;;;7.40;99.90;;;;;;4985886;28;20026;-84
2023/04/16 07:25:18;;;;;;;81.80;34.88;;;7.40;99.90;;;;;;4988133;28;20026;-85
2023/04/16 07:27:44;;;;;;;83.15;35.58;;;7.50;99.90;;;;;;4979171;28;20026;-85
2023/04/16 07:30:10;;;;;;;81.88;37.20;;;7.60;99.90;;;;;;4985872;28;20110;-85
2023/04/16 07:32:35;;;;;;;93.72;37.75;;;7.70;99.90;;;;;;4976974;28;20433;-84
2023/04/16 07:35:02;;;;;;;83.07;34.65;;;7.80;99.90;;;;;;4976879;28;20023;-85
2023/04/16 07:37:28;;;;;;;91.13;36.15;;;7.80;99.90;;;;;;4976907;28;20107;-85
2023/04/16 07:39:56;;;;;;;80.60;35.65;;;7.80;99.90;;;;;;4976624;28;20540;-84
2023/04/16 07:42:22;;;;;;;69.22;32.80;;;7.80;99.90;;;;;;4977159;28;20061;-84
2023/04/16 07:44:47;;;;;;;77.78;33.67;;;7.90;99.90;;;;;;4960899;28;20027;-85
2023/04/16 07:47:13;;;;;;;72.63;33.88;;;7.90;99.90;;;;;;4995975;28;20034;-85
2023/04/16 07:49:39;;;;;;;81.72;34.70;;;8.00;99.90;;;;;;4978854;28;20030;-85
2023/04/16 07:52:05;;;;;;;69.22;32.40;;;8.10;99.90;;;;;;4979112;28;20385;-84
2023/04/16 07:54:30;;;;;;;66.18;31.42;;;8.20;99.90;;;;;;4995316;28;20058;-85
2023/04/16 07:56:56;;;;;;;67.47;30.98;;;8.20;99.90;;;;;;4979091;28;20019;-84
2023/04/16 07:59:22;;;;;;;63.85;29.85;;;8.30;99.90;;;;;;4995922;28;20022;-85
2023/04/16 08:01:48;;;;;;;73.25;33.88;;;8.30;99.90;;;;;;4978812;28;20029;-85
2023/04/16 08:04:16;;;;;;;61.60;29.63;;;8.30;99.90;;;;;;4994808;28;20026;-85
2023/04/16 08:06:41;;;;;;;70.80;33.25;;;8.40;99.90;;;;;;4996033;28;20053;-84
2023/04/16 08:09:07;;;;;;;65.53;30.48;;;8.50;99.90;;;;;;4978243;28;20489;-86
2023/04/16 08:11:33;;;;;;;74.85;32.38;;;8.50;99.90;;;;;;4995610;28;20039;-85
2023/04/16 08:13:58;;;;;;;66.80;32.17;;;8.60;99.90;;;;;;4978168;28;20026;-84
2023/04/16 08:16:24;;;;;;;72.70;33.30;;;8.60;99.90;;;;;;4995777;28;20026;-84
2023/04/16 08:18:50;;;;;;;72.47;31.88;;;8.70;99.90;;;;;;4978484;28;20046;-86
2023/04/16 08:21:16;;;;;;;72.60;33.80;;;8.80;99.90;;;;;;4978793;28;20106;-85
2023/04/16 08:23:42;;;;;;;76.22;33.28;;;8.70;99.90;;;;;;4994895;28;20030;-86
2023/04/16 08:26:08;;;;;;;63.65;30.85;;;8.80;99.90;;;;;;4995042;28;20023;-85
2023/04/16 08:28:33;;;;;;;75.90;35.13;;;8.90;99.90;;;;;;4994163;28;20035;-85
2023/04/16 08:30:59;;;;;;;78.93;33.75;;;8.90;99.90;;;;;;4994384;28;20092;-84
2023/04/16 08:33:25;;;;;;;74.45;37.78;;;8.90;99.90;;;;;;4978123;28;20468;-85
2023/04/16 08:35:51;;;;;;;71.70;34.25;;;9.00;99.90;;;;;;4995607;28;20025;-85
2023/04/16 08:38:16;;;;;;;76.65;34.03;;;9.00;99.90;;;;;;4995603;28;20022;-84
2023/04/16 08:40:44;;;;;;;74.07;32.17;;;9.10;99.90;;;;;;4995611;28;20026;-84
2023/04/16 08:43:12;;;;;;;67.28;32.25;;;9.20;99.90;;;;;;4978459;28;20040;-84
2023/04/16 08:45:41;;;;;;;70.55;32.45;;;9.30;99.90;;;;;;4995515;28;20491;-85
2023/04/16 08:48:06;;;;;;;65.15;32.92;;;9.30;99.90;;;;;;4971964;28;20042;-85
2023/04/16 08:50:33;;;;;;;77.05;32.45;;;9.50;99.90;;;;;;4985573;28;20088;-85
2023/04/16 08:53:04;;;;;;;77.53;33.78;;;9.70;99.90;;;;;;4977942;28;20496;-85
2023/04/16 08:55:37;;;;;;;58.33;30.20;;;9.90;99.90;;;;;;4975991;28;20042;-85
2023/04/16 08:58:25;;;;;;;65.90;27.65;;;10.10;99.90;;;;;;4975580;28;20019;-85
2023/04/16 09:00:54;;;;;;;52.78;25.42;;;10.30;99.90;;;;;;4975293;28;20030;-83
2023/04/16 09:03:20;;;;;;;52.63;26.90;;;10.70;99.90;;;;;;4986952;28;20476;-85
2023/04/16 09:05:48;;;;;;;43.95;22.60;;;11.00;99.90;;;;;;4995095;28;20041;-85
2023/04/16 09:08:14;;;;;;;42.78;23.35;;;11.20;99.90;;;;;;4994612;28;20038;-86
2023/04/16 09:10:40;;;;;;;37.72;21.48;;;11.20;99.90;;;;;;4977249;28;20511;-85
2023/04/16 09:13:08;;;;;;;42.85;22.38;;;11.30;99.90;;;;;;4994806;28;20015;-86
2023/04/16 09:15:35;;;;;;;34.97;19.15;;;11.50;99.90;;;;;;4977271;28;20068;-85
2023/04/16 09:18:00;;;;;;;36.42;20.98;;;11.70;99.90;;;;;;4994549;28;20033;-85
2023/04/16 09:20:26;;;;;;;32.47;19.35;;;12.00;99.90;;;;;;4994733;28;20018;-85
2023/04/16 09:22:52;;;;;;;39.50;21.27;;;12.00;99.90;;;;;;4994773;28;20029;-85
2023/04/16 09:25:21;;;;;;;37.47;20.30;;;12.10;99.90;;;;;;4977134;28;20027;-85
2023/04/16 09:27:49;;;;;;;31.92;18.33;;;12.40;99.90;;;;;;4994491;28;20034;-85
2023/04/16 09:30:22;;;;;;;35.00;19.30;;;12.50;99.90;;;;;;4994605;28;20041;-85
2023/04/16 09:32:49;;;;;;;36.80;20.52;;;12.60;99.90;;;;;;4976624;28;20041;-86
2023/04/16 09:35:20;;;;;;;34.63;21.67;;;12.80;98.90;;;;;;4977542;28;20469;-85
2023/04/16 09:37:56;;;;;;;30.77;18.80;;;13.00;97.60;;;;;;4994272;28;20473;-85
2023/04/16 09:40:29;;;;;;;32.35;17.65;;;13.20;90.70;;;;;;4994185;28;20022;-84
2023/04/16 09:42:59;;;;;;;;;;;13.20;87.00;;;;;;4994205;28;20037;-85
2023/04/16 09:45:25;;;;;;;34.13;18.77;;;13.40;90.90;;;;;;4976612;28;20253;-83
2023/04/16 09:47:50;;;;;;;30.30;18.50;;;13.70;90.50;;;;;;4977036;28;20049;-85
2023/04/16 09:50:18;;;;;;;26.77;17.23;;;13.80;84.90;;;;;;4977718;28;20535;-85
2023/04/16 09:52:51;;;;;;;31.80;19.00;;;14.00;83.10;;;;;;4972461;28;20082;-85
2023/04/16 09:55:22;;;;;;;28.35;17.33;;;14.00;79.70;;;;;;4972324;28;20061;-86
2023/04/16 09:57:48;;;;;;;25.05;15.85;;;14.00;79.40;;;;;;4973365;28;20082;-84
2023/04/16 10:00:18;;;;;;;32.00;19.40;;;13.90;78.20;;;;;;4992040;28;20038;-84
2023/04/16 10:03:08;;;;;;;21.48;14.95;;;13.80;76.60;;;;;;4974775;28;20511;-85
2023/04/16 10:05:37;;;;;;;23.65;15.73;;;13.40;74.50;;;;;;4974848;28;20052;-85
2023/04/16 10:08:09;;;;;;;27.65;16.95;;;13.40;74.60;;;;;;4992675;28;20033;-83
2023/04/16 10:10:35;;;;;;;23.33;16.67;;;13.30;77.60;;;;;;4993394;28;20035;-83
2023/04/16 10:13:01;;;;;;;25.40;14.48;;;13.20;80.40;;;;;;4993812;28;20022;-85
2023/04/16 10:15:27;;;;;;;22.25;14.38;;;12.80;76.50;;;;;;4976691;28;20053;-84
2023/04/16 10:17:53;;;;;;;21.95;13.55;;;12.60;78.70;;;;;;4976582;28;20053;-85
2023/04/16 10:20:18;;;;;;;18.50;13.38;;;12.70;78.60;;;;;;4993933;28;20030;-84
2023/04/16 10:22:45;;;;;;;25.90;15.63;;;12.90;80.60;;;;;;4994198;28;20042;-85
2023/04/16 10:25:11;;;;;;;20.83;13.07;;;12.80;85.70;;;;;;4993844;28;20369;-84
2023/04/16 10:27:37;;;;;;;27.52;14.45;;;12.50;86.50;;;;;;4975263;28;20019;-84
2023/04/16 10:30:04;;;;;;;21.52;13.65;;;12.40;87.00;;;;;;4989903;28;20038;-84
2023/04/16 10:32:32;;;;;;;30.13;16.85;;;12.20;86.10;;;;;;4978877;28;20497;-84
2023/04/16 10:34:58;;;;;;;32.30;19.63;;;12.20;86.60;;;;;;4956053;28;20392;-85
2023/04/16 10:37:31;;;;;;;19.48;13.07;;;12.10;86.90;;;;;;4973283;28;20031;-83
2023/04/16 10:39:59;;;;;;;;;;;12.20;85.30;;;;;;4956332;28;20051;-84
2023/04/16 10:42:26;;;;;;;21.55;13.77;;;12.30;85.00;;;;;;4964578;28;20374;-84
2023/04/16 10:44:52;;;;;;;20.33;12.93;;;12.40;85.20;;;;;;4975502;28;20383;-84
2023/04/16 10:47:17;;;;;;;18.92;12.75;;;12.40;83.80;;;;;;4975617;28;20019;-84
2023/04/16 10:49:46;;;;;;;21.27;13.40;;;12.70;82.20;;;;;;4993144;28;20066;-84
2023/04/16 10:52:15;;;;;;;21.88;14.20;;;13.00;80.20;;;;;;4993227;28;20101;-84
2023/04/16 10:54:42;;;;;;;19.30;12.95;;;13.40;80.90;;;;;;4992167;28;20153;-83
2023/04/16 10:57:16;;;;;;;22.65;13.90;;;13.80;79.50;;;;;;4975012;28;20475;-84
2023/04/16 10:59:43;;;;;;;20.15;13.20;;;13.60;77.20;;;;;;4987059;28;20019;-84
2023/04/16 11:02:16;;;;;;;16.38;11.85;;;13.60;75.40;;;;;;4986131;28;20050;-84
2023/04/16 11:04:44;;;;;;;20.02;11.40;;;13.60;73.80;;;;;;4974344;28;20031;-84
2023/04/16 11:07:17;;;;;;;25.83;16.48;;;13.60;73.40;;;;;;4992139;28;20027;-85
2023/04/16 11:09:53;;;;;;;16.83;11.43;;;13.90;75.10;;;;;;4992958;28;20030;-84
2023/04/16 11:12:26;;;;;;;18.25;10.98;;;14.10;70.90;;;;;;4991958;28;20026;-84
2023/04/16 11:15:09;;;;;;;15.60;10.38;;;14.10;68.10;;;;;;4993560;28;20022;-84
2023/04/16 11:17:43;;;;;;;15.30;9.35;;;14.00;66.90;;;;;;4993157;28;20357;-84
2023/04/16 11:20:16;;;;;;;17.38;10.38;;;14.20;67.90;;;;;;4993076;28;20383;-84
2023/04/16 11:22:44;;;;;;;16.50;10.55;;;14.60;68.70;;;;;;4975686;28;20026;-85
2023/04/16 11:25:10;;;;;;;14.95;9.75;;;14.90;69.10;;;;;;4993163;28;20591;-85
2023/04/16 11:27:36;;;;;;;13.82;10.30;;;15.10;67.50;;;;;;4991989;28;20524;-85
2023/04/16 11:30:04;;;;;;;12.80;10.63;;;15.20;67.10;;;;;;4991633;28;20113;-85
2023/04/16 11:32:32;;;;;;;13.95;9.80;;;14.90;64.10;;;;;;4992276;28;20085;-84
2023/04/16 11:35:02;;;;;;;13.30;9.10;;;14.80;63.70;;;;;;4974665;28;20026;-84
2023/04/16 11:37:35;;;;;;;12.90;8.10;;;14.80;65.10;;;;;;4974594;28;20089;-84
2023/04/16 11:40:03;;;;;;;12.13;8.68;;;14.60;64.20;;;;;;4995449;28;20023;-84
2023/04/16 11:42:29;;;;;;;12.80;9.45;;;14.70;63.90;;;;;;4995775;28;20029;-85
2023/04/16 11:44:57;;;;;;;15.38;9.50;;;14.80;65.40;;;;;;4996785;28;20105;-85
2023/04/16 11:47:23;;;;;;;16.05;9.85;;;15.10;65.20;;;;;;4978691;28;20068;-84
2023/04/16 11:49:50;;;;;;;16.77;10.68;;;15.20;64.10;;;;;;4996711;28;20088;-84
2023/04/16 11:52:31;;;;;;;14.10;9.65;;;15.30;65.10;;;;;;4997022;28;20029;-85
2023/04/16 11:54:58;;;;;;;14.18;9.63;;;15.30;65.00;;;;;;4976151;28;20035;-84
2023/04/16 11:57:24;;;;;;;13.07;8.43;;;15.30;63.20;;;;;;4976948;28;20531;-85
2023/04/16 11:59:50;;;;;;;13.10;8.98;;;15.30;62.50;;;;;;4976738;28;20038;-86
2023/04/16 12:02:16;;;;;;;12.85;8.85;;;15.50;62.10;;;;;;4976988;28;20023;-85
2023/04/16 12:04:42;;;;;;;11.07;8.90;;;15.80;62.60;;;;;;4976973;28;20027;-84
2023/04/16 12:07:12;;;;;;;12.32;8.85;;;15.80;58.90;;;;;;4976728;28;20026;-85
2023/04/16 12:09:40;;;;;;;13.88;8.90;;;15.70;58.30;;;;;;4975496;28;20428;-85
2023/04/16 12:12:24;;;;;;;18.67;13.98;;;15.50;59.20;;;;;;4976800;28;20041;-85
2023/04/16 12:14:51;;;;;;;11.27;8.18;;;15.30;60.80;;;;;;4975662;28;20018;-84
2023/04/16 12:17:21;;;;;;;10.23;7.97;;;14.90;61.20;;;;;;4975216;28;20019;-83
2023/04/16 12:19:51;;;;;;;12.07;8.40;;;14.70;61.60;;;;;;4976701;28;20069;-85
2023/04/16 12:22:25;;;;;;;11.05;9.48;;;14.70;62.00;;;;;;4961701;28;20038;-85
2023/04/16 12:24:55;;;;;;;14.25;8.43;;;14.60;61.80;;;;;;4957346;28;20422;-86
2023/04/16 12:27:21;;;;;;;12.20;8.65;;;14.60;62.30;;;;;;4957394;29;20478;-84
2023/04/16 12:30:06;;;;;;;11.88;8.57;;;14.60;62.40;;;;;;4959217;28;20093;-84